createdAt,value
2019-01-29T00:01:27.467Z,4.43
2019-01-29T00:03:56.948Z,4.93
2019-01-29T00:06:25.860Z,5.23
2019-01-29T00:08:54.806Z,4.87
2019-01-29T00:11:24.542Z,4.97
2019-01-29T00:13:53.677Z,4.90
2019-01-29T00:16:22.600Z,5.10
2019-01-29T00:22:23.490Z,5.10
2019-01-29T00:24:52.897Z,5.20
2019-01-29T00:27:21.921Z,4.23
2019-01-29T00:29:51.193Z,5.60
2019-01-29T00:32:20.576Z,4.73
2019-01-29T00:34:49.874Z,4.80
2019-01-29T00:37:19.195Z,4.10
2019-01-29T00:39:48.896Z,4.43
2019-01-29T00:42:18.197Z,3.67
2019-01-29T00:44:47.161Z,3.90
2019-01-29T00:47:16.388Z,4.13
2019-01-29T00:49:45.343Z,3.37
2019-01-29T00:52:14.249Z,3.43
2019-01-29T00:54:43.521Z,4.63
2019-01-29T00:57:12.452Z,3.80
2019-01-29T00:59:41.381Z,3.80
2019-01-29T01:02:10.295Z,4.43
2019-01-29T01:04:39.230Z,4.20
2019-01-29T01:07:08.295Z,4.60
2019-01-29T01:09:37.182Z,4.83
2019-01-29T01:12:07.128Z,3.70
2019-01-29T01:14:36.026Z,4.80
2019-01-29T01:17:05.053Z,4.33
2019-01-29T01:19:34.034Z,5.00
2019-01-29T01:22:02.996Z,4.43
2019-01-29T01:24:31.969Z,4.40
2019-01-29T01:27:00.898Z,4.73
2019-01-29T01:29:29.943Z,3.63
2019-01-29T01:31:59.278Z,4.20
2019-01-29T01:34:28.240Z,3.63
2019-01-29T01:36:57.169Z,4.40
2019-01-29T01:39:26.104Z,4.20
2019-01-29T01:41:55.058Z,3.70
2019-01-29T01:44:23.955Z,4.27
2019-01-29T01:46:52.883Z,4.40
2019-01-29T01:49:21.862Z,3.37
2019-01-29T01:52:02.833Z,5.07
2019-01-29T01:54:32.101Z,3.70
2019-01-29T02:00:23.988Z,3.67
2019-01-29T02:02:52.931Z,3.60
2019-01-29T02:05:21.889Z,3.60
2019-01-29T02:07:50.799Z,3.83
2019-01-29T02:10:21.152Z,4.10
2019-01-29T02:12:50.507Z,3.40
2019-01-29T02:15:19.646Z,3.87
2019-01-29T02:17:48.844Z,3.63
2019-01-29T02:20:29.305Z,3.93
2019-01-29T02:22:58.617Z,4.13
2019-01-29T02:25:28.013Z,4.20
2019-01-29T02:27:57.005Z,3.97
2019-01-29T02:30:25.964Z,4.23
2019-01-29T02:32:54.997Z,4.77
2019-01-29T02:35:24.004Z,3.93
2019-01-29T02:37:53.001Z,3.90
2019-01-29T02:40:23.178Z,3.70
2019-01-29T02:42:52.110Z,4.00
2019-01-29T02:45:21.128Z,3.70
2019-01-29T02:48:12.078Z,4.63
2019-01-29T02:50:41.025Z,4.30
2019-01-29T02:53:18.095Z,4.03
2019-01-29T02:58:51.460Z,3.23
2019-01-29T03:01:20.425Z,3.63
2019-01-29T03:03:49.360Z,3.10
2019-01-29T03:06:39.150Z,3.70
2019-01-29T03:09:09.790Z,3.90
2019-01-29T03:11:38.744Z,3.53
2019-01-29T03:14:07.688Z,3.70
2019-01-29T03:16:36.752Z,3.27
2019-01-29T03:22:22.142Z,3.60
2019-01-29T03:24:51.118Z,3.40
2019-01-29T03:27:20.155Z,4.37
2019-01-29T03:29:49.528Z,3.73
2019-01-29T03:32:18.412Z,3.73
2019-01-29T03:34:49.362Z,4.03
2019-01-29T03:37:18.294Z,3.70
2019-01-29T03:39:47.530Z,4.40
2019-01-29T03:42:16.476Z,4.53
2019-01-29T03:44:45.753Z,4.07
2019-01-29T03:47:14.774Z,5.30
2019-01-29T03:49:44.044Z,5.17
2019-01-29T03:55:22.470Z,5.90
2019-01-29T03:57:51.415Z,5.10
2019-01-29T04:00:21.657Z,4.97
2019-01-29T04:02:50.970Z,5.23
2019-01-29T04:05:19.855Z,5.80
2019-01-29T04:07:48.902Z,4.90
2019-01-29T04:10:18.001Z,6.00
2019-01-29T04:12:46.950Z,5.30
2019-01-29T04:15:17.078Z,5.37
2019-01-29T04:17:46.069Z,7.60
2019-01-29T04:20:16.404Z,5.70
2019-01-29T04:22:46.133Z,6.10
2019-01-29T04:25:15.193Z,6.03
2019-01-29T04:28:17.103Z,5.60
2019-01-29T04:30:46.032Z,4.83
2019-01-29T04:33:14.967Z,5.63
2019-01-29T04:35:44.241Z,4.80
2019-01-29T04:38:13.483Z,5.93
2019-01-29T04:40:42.410Z,4.70
2019-01-29T04:43:13.008Z,5.73
2019-01-29T04:45:42.351Z,4.87
2019-01-29T04:48:11.298Z,4.80
2019-01-29T04:50:40.206Z,4.67
2019-01-29T04:53:09.501Z,4.27
2019-01-29T04:55:38.457Z,4.83
2019-01-29T04:58:07.368Z,5.20
2019-01-29T05:00:36.272Z,5.10
2019-01-29T05:03:23.416Z,4.97
2019-01-29T05:05:52.307Z,4.90
2019-01-29T05:08:21.204Z,5.50
2019-01-29T05:10:50.424Z,4.47
2019-01-29T05:13:19.319Z,4.60
2019-01-29T05:15:48.232Z,4.50
2019-01-29T05:18:17.199Z,4.70
2019-01-29T05:20:46.108Z,4.70
2019-01-29T05:23:15.543Z,5.30
2019-01-29T05:28:55.072Z,5.57
2019-01-29T05:31:24.457Z,4.47
2019-01-29T05:33:53.356Z,5.07
2019-01-29T05:36:22.260Z,5.03
2019-01-29T05:38:51.169Z,4.67
2019-01-29T05:41:28.655Z,5.50
2019-01-29T05:43:58.002Z,4.97
2019-01-29T05:46:27.061Z,4.90
2019-01-29T05:48:56.187Z,5.80
2019-01-29T05:51:27.594Z,5.23
2019-01-29T05:53:56.928Z,5.00
2019-01-29T05:56:27.946Z,5.47
2019-01-29T05:59:01.512Z,4.53
2019-01-29T06:01:57.818Z,5.13
2019-01-29T06:04:27.135Z,6.10
2019-01-29T06:06:56.951Z,7.50
2019-01-29T06:09:26.264Z,6.47
2019-01-29T06:11:55.185Z,5.70
2019-01-29T06:14:24.083Z,6.30
2019-01-29T06:16:53.013Z,6.00
2019-01-29T06:19:21.926Z,5.03
2019-01-29T06:21:51.665Z,6.17
2019-01-29T06:24:26.244Z,6.03
2019-01-29T06:26:55.172Z,5.70
2019-01-29T06:29:24.531Z,5.53
2019-01-29T06:31:53.511Z,5.50
2019-01-29T06:34:22.726Z,7.10
2019-01-29T06:36:51.683Z,5.90
2019-01-29T06:39:20.674Z,5.00
2019-01-29T06:41:49.608Z,5.40
2019-01-29T06:44:18.551Z,5.40
2019-01-29T06:46:47.547Z,5.43
2019-01-29T06:49:22.727Z,4.97
2019-01-29T06:51:51.701Z,5.30
2019-01-29T06:54:33.924Z,4.90
2019-01-29T06:56:57.225Z,4.90
2019-01-29T06:59:26.275Z,5.57
2019-01-29T07:01:55.617Z,5.33
2019-01-29T07:04:24.938Z,6.00
2019-01-29T07:06:58.144Z,5.17
2019-01-29T07:09:27.117Z,5.13
2019-01-29T07:11:58.943Z,5.80
2019-01-29T07:14:28.296Z,5.20
2019-01-29T07:17:22.454Z,6.00
2019-01-29T07:19:54.282Z,6.00
2019-01-29T07:22:23.221Z,5.50
2019-01-29T07:25:00.540Z,6.00
2019-01-29T07:27:29.534Z,5.87
2019-01-29T07:29:58.461Z,5.40
2019-01-29T07:32:30.716Z,5.70
2019-01-29T07:34:59.667Z,5.67
2019-01-29T07:37:28.675Z,6.00
2019-01-29T07:40:19.300Z,5.50
2019-01-29T07:42:48.240Z,5.20
2019-01-29T07:45:17.591Z,5.60
2019-01-29T07:47:54.751Z,6.47
2019-01-29T07:50:23.686Z,5.50
2019-01-29T07:52:52.986Z,6.00
2019-01-29T07:55:21.965Z,5.87
2019-01-29T07:57:50.956Z,6.00
2019-01-29T08:00:19.898Z,6.90
2019-01-29T08:02:48.826Z,6.20
2019-01-29T08:05:18.235Z,6.30
2019-01-29T08:07:47.162Z,6.77
2019-01-29T08:10:16.190Z,6.03
2019-01-29T08:12:45.143Z,6.40
2019-01-29T08:15:14.190Z,6.70
2019-01-29T08:17:43.147Z,6.20
2019-01-29T08:20:12.128Z,6.50
2019-01-29T08:22:41.508Z,7.40
2019-01-29T08:25:29.781Z,6.50
2019-01-29T08:27:58.752Z,7.17
2019-01-29T08:30:27.736Z,7.00
2019-01-29T08:32:56.704Z,6.67
2019-01-29T08:35:26.041Z,7.40
2019-01-29T08:37:55.054Z,6.67
2019-01-29T08:40:24.077Z,6.83
2019-01-29T08:42:53.466Z,7.07
2019-01-29T08:45:22.889Z,7.80
2019-01-29T08:47:51.858Z,6.80
2019-01-29T08:50:21.772Z,6.10
2019-01-29T08:52:50.789Z,6.03
2019-01-29T08:55:19.958Z,5.63
2019-01-29T08:57:48.908Z,6.77
2019-01-29T09:00:18.202Z,6.70
2019-01-29T09:02:47.948Z,5.00
2019-01-29T09:05:17.139Z,5.60
2019-01-29T09:07:46.427Z,5.43
2019-01-29T09:10:15.852Z,5.57
2019-01-29T09:12:44.792Z,5.30
2019-01-29T09:15:14.912Z,5.63
2019-01-29T09:17:43.971Z,5.10
2019-01-29T09:20:13.346Z,6.53
2019-01-29T09:22:42.261Z,6.30
2019-01-29T09:25:19.924Z,7.00
2019-01-29T09:27:42.675Z,5.50
2019-01-29T09:30:13.002Z,5.60
2019-01-29T09:32:41.994Z,6.03
2019-01-29T09:35:11.427Z,5.93
2019-01-29T09:37:40.378Z,5.17
2019-01-29T09:40:11.234Z,6.30
2019-01-29T09:42:40.167Z,4.77
2019-01-29T09:45:10.169Z,4.70
2019-01-29T09:47:39.157Z,5.60
2019-01-29T09:50:30.961Z,6.50
2019-01-29T09:52:59.899Z,7.73
2019-01-29T09:55:30.032Z,7.43
2019-01-29T09:57:59.449Z,6.63
2019-01-29T10:00:32.657Z,7.27
2019-01-29T10:03:01.543Z,6.13
2019-01-29T10:05:30.502Z,8.03
2019-01-29T10:07:59.908Z,6.60
2019-01-29T10:10:29.206Z,6.37
2019-01-29T10:13:10.280Z,7.20
2019-01-29T10:15:39.412Z,6.73
2019-01-29T10:18:08.264Z,6.20
2019-01-29T10:20:37.259Z,7.17
2019-01-29T10:23:06.525Z,6.77
2019-01-29T10:25:37.793Z,6.73
2019-01-29T10:28:06.857Z,6.00
2019-01-29T10:30:36.640Z,5.20
2019-01-29T10:36:56.524Z,4.83
2019-01-29T10:39:25.469Z,5.60
2019-01-29T10:41:54.709Z,4.40
2019-01-29T10:44:59.966Z,4.27
2019-01-29T10:47:48.190Z,4.90
2019-01-29T10:50:24.075Z,4.20
2019-01-29T10:52:54.267Z,4.60
2019-01-29T10:55:23.276Z,4.23
2019-01-29T10:57:52.310Z,4.47
2019-01-29T11:00:22.996Z,4.10
2019-01-29T11:02:51.931Z,4.80
2019-01-29T11:05:21.063Z,4.67
2019-01-29T11:07:49.973Z,5.00
2019-01-29T11:10:19.379Z,3.83
2019-01-29T11:12:48.648Z,4.67
2019-01-29T11:21:42.144Z,4.10
2019-01-29T11:24:11.033Z,4.37
2019-01-29T11:26:40.230Z,4.50
2019-01-29T11:29:09.161Z,5.10
2019-01-29T11:31:38.057Z,3.87
2019-01-29T11:34:07.356Z,4.83
2019-01-29T11:36:36.346Z,4.17
2019-01-29T11:39:07.406Z,5.07
2019-01-29T11:41:36.263Z,5.10
2019-01-29T11:44:05.884Z,4.40
2019-01-29T11:46:34.794Z,3.87
2019-01-29T11:49:03.791Z,3.23
2019-01-29T11:51:33.065Z,3.57
2019-01-29T11:54:02.305Z,3.30
2019-01-29T11:56:40.990Z,3.40
2019-01-29T11:59:09.882Z,2.90
2019-01-29T12:01:39.075Z,2.67
2019-01-29T12:04:08.381Z,3.63
2019-01-29T12:06:37.263Z,3.63
2019-01-29T12:09:09.298Z,4.07
2019-01-29T12:11:38.594Z,4.50
2019-01-29T12:14:08.755Z,4.20
2019-01-29T12:16:37.660Z,5.27
2019-01-29T12:19:12.409Z,4.10
2019-01-29T12:21:41.768Z,4.90
2019-01-29T12:24:11.356Z,5.00
2019-01-29T12:26:40.389Z,4.40
2019-01-29T12:29:09.267Z,4.30
2019-01-29T12:31:38.170Z,4.00
2019-01-29T12:34:07.222Z,4.93
2019-01-29T12:36:36.882Z,4.40
2019-01-29T12:39:07.872Z,4.20
2019-01-29T12:41:36.771Z,4.27
2019-01-29T12:44:05.800Z,4.60
2019-01-29T12:46:34.712Z,4.73
2019-01-29T12:49:03.697Z,3.67
2019-01-29T12:51:50.091Z,3.53
2019-01-29T12:54:18.965Z,4.10
2019-01-29T12:56:47.871Z,4.53
2019-01-29T12:59:16.774Z,4.47
2019-01-29T13:01:45.707Z,3.67
2019-01-29T13:04:14.577Z,4.10
2019-01-29T13:06:43.814Z,3.60
2019-01-29T13:09:12.801Z,4.93
2019-01-29T13:11:42.007Z,3.60
2019-01-29T13:14:10.928Z,4.77
2019-01-29T13:16:39.851Z,3.77
2019-01-29T13:19:08.744Z,3.50
2019-01-29T13:21:37.664Z,3.10
2019-01-29T13:24:07.006Z,3.17
2019-01-29T13:26:37.953Z,3.23
2019-01-29T13:29:07.419Z,3.90
2019-01-29T13:31:36.662Z,3.40
2019-01-29T13:34:17.890Z,3.20
2019-01-29T13:36:46.775Z,2.60
2019-01-29T13:39:15.655Z,2.73
2019-01-29T13:41:44.548Z,2.80
2019-01-29T13:44:13.764Z,3.00
2019-01-29T13:46:42.831Z,2.63
2019-01-29T13:49:12.076Z,2.93
2019-01-29T13:51:41.011Z,3.17
2019-01-29T13:54:09.931Z,3.90
2019-01-29T13:56:39.268Z,2.43
2019-01-29T13:59:08.200Z,2.50
2019-01-29T14:01:37.088Z,2.23
2019-01-29T14:04:16.463Z,2.37
2019-01-29T14:06:45.354Z,1.80
2019-01-29T14:09:14.285Z,1.97
2019-01-29T14:11:43.648Z,1.63
2019-01-29T14:14:12.572Z,1.87
2019-01-29T14:16:41.832Z,1.90
2019-01-29T14:19:10.684Z,2.00
2019-01-29T14:21:39.942Z,2.17
2019-01-29T14:24:08.947Z,2.60
2019-01-29T14:26:37.850Z,2.40
2019-01-29T14:29:08.997Z,2.40
2019-01-29T14:31:37.844Z,3.43
2019-01-29T14:34:06.716Z,3.03
2019-01-29T14:36:35.713Z,2.07
2019-01-29T14:39:10.038Z,2.73
2019-01-29T14:41:38.961Z,2.50
2019-01-29T14:44:36.091Z,2.33
2019-01-29T14:47:18.214Z,2.37
2019-01-29T14:49:47.187Z,2.40
2019-01-29T14:52:16.586Z,2.13
2019-01-29T14:54:45.526Z,2.90
2019-01-29T14:57:14.681Z,2.57
2019-01-29T14:59:43.578Z,3.23
2019-01-29T15:02:12.470Z,2.50
2019-01-29T15:04:41.407Z,2.10
2019-01-29T15:07:10.584Z,2.47
2019-01-29T15:09:39.946Z,1.90
2019-01-29T15:12:08.902Z,2.33
2019-01-29T15:14:38.291Z,2.33
2019-01-29T15:17:25.079Z,2.43
2019-01-29T15:19:59.893Z,2.33
2019-01-29T15:22:28.854Z,2.70
2019-01-29T15:24:57.803Z,2.33
2019-01-29T15:27:27.158Z,2.27
2019-01-29T15:29:56.120Z,2.40
2019-01-29T15:35:35.132Z,2.60
2019-01-29T15:38:04.499Z,2.60
2019-01-29T15:40:33.801Z,2.70
2019-01-29T15:43:03.115Z,2.10
2019-01-29T15:45:32.529Z,2.87
2019-01-29T15:48:01.402Z,2.20
2019-01-29T15:50:31.360Z,2.63
2019-01-29T15:53:00.296Z,2.80
2019-01-29T15:55:29.623Z,2.33
2019-01-29T15:57:58.738Z,1.90
2019-01-29T16:00:29.726Z,2.00
2019-01-29T16:02:59.046Z,2.87
2019-01-29T16:05:28.105Z,3.40
2019-01-29T16:07:57.060Z,2.60
2019-01-29T16:10:39.423Z,2.93
2019-01-29T16:13:15.564Z,3.20
2019-01-29T16:15:44.896Z,3.20
2019-01-29T16:18:15.377Z,3.30
2019-01-29T16:20:49.779Z,3.17
2019-01-29T16:23:34.370Z,2.80
2019-01-29T16:26:03.323Z,3.80
2019-01-29T16:28:32.601Z,5.37
2019-01-29T16:31:01.530Z,5.80
2019-01-29T16:33:58.050Z,6.00
2019-01-29T16:36:27.530Z,3.57
2019-01-29T16:38:56.593Z,2.77
2019-01-29T16:41:25.678Z,2.93
2019-01-29T16:44:02.694Z,10.23
2019-01-29T16:46:32.105Z,32.90
2019-01-29T16:49:01.135Z,3.77
2019-01-29T16:51:30.096Z,6.40
2019-01-29T16:53:59.025Z,2.97
2019-01-29T16:56:27.975Z,3.80
2019-01-29T16:58:56.927Z,3.30
2019-01-29T17:01:32.071Z,4.50
2019-01-29T17:04:23.852Z,4.10
2019-01-29T17:06:53.225Z,3.90
2019-01-29T17:09:22.246Z,4.50
2019-01-29T17:11:57.120Z,4.67
2019-01-29T17:14:34.616Z,5.70
2019-01-29T17:17:14.782Z,6.03
2019-01-29T17:20:01.209Z,5.40
2019-01-29T17:22:30.218Z,5.20
2019-01-29T17:25:05.789Z,6.47
2019-01-29T17:27:40.116Z,5.20
2019-01-29T17:30:06.836Z,5.43
2019-01-29T17:32:36.991Z,7.97
2019-01-29T17:35:06.085Z,6.40
2019-01-29T17:37:50.453Z,6.33
2019-01-29T17:40:19.629Z,5.03
2019-01-29T17:42:48.606Z,5.20
2019-01-29T17:45:22.390Z,5.90
2019-01-29T17:48:00.514Z,7.20
2019-01-29T17:50:34.666Z,20.63
2019-01-29T17:53:03.532Z,6.63
2019-01-29T17:55:35.467Z,7.17
2019-01-29T17:58:05.628Z,10.73
2019-01-29T18:00:35.406Z,7.53
2019-01-29T18:03:04.569Z,6.97
2019-01-29T18:05:34.947Z,8.00
2019-01-29T18:08:05.429Z,7.17
2019-01-29T18:10:34.423Z,6.90
2019-01-29T18:13:09.862Z,7.20
2019-01-29T18:15:38.904Z,8.70
2019-01-29T18:18:07.853Z,8.00
2019-01-29T18:20:36.859Z,8.50
2019-01-29T18:23:06.103Z,8.30
2019-01-29T18:25:35.221Z,8.63
2019-01-29T18:28:04.883Z,9.23
2019-01-29T18:30:34.081Z,8.83
2019-01-29T18:33:03.029Z,7.47
2019-01-29T18:35:32.051Z,8.10
2019-01-29T18:38:01.012Z,7.90
2019-01-29T18:40:34.537Z,7.70
2019-01-29T18:43:03.571Z,7.13
2019-01-29T18:45:32.911Z,7.70
2019-01-29T18:48:05.049Z,8.17
2019-01-29T18:50:34.386Z,6.90
2019-01-29T18:53:03.346Z,8.50
2019-01-29T18:55:32.403Z,8.37
2019-01-29T18:58:11.176Z,9.67
2019-01-29T19:00:37.998Z,9.00
2019-01-29T19:03:07.052Z,9.53
2019-01-29T19:05:36.018Z,8.97
2019-01-29T19:08:05.137Z,8.37
2019-01-29T19:10:34.110Z,7.67
2019-01-29T19:13:08.726Z,8.50
2019-01-29T19:15:47.988Z,9.80
2019-01-29T19:18:21.818Z,8.47
2019-01-29T19:20:50.763Z,8.73
2019-01-29T19:23:52.000Z,8.43
2019-01-29T19:26:22.240Z,9.13
2019-01-29T19:28:53.254Z,8.33
2019-01-29T19:31:22.212Z,8.07
2019-01-29T19:33:51.137Z,7.73
2019-01-29T19:36:20.157Z,8.53
2019-01-29T19:39:19.204Z,9.50
2019-01-29T19:41:48.189Z,10.10
2019-01-29T19:44:17.150Z,8.57
2019-01-29T19:46:46.087Z,9.70
2019-01-29T19:49:15.539Z,9.27
2019-01-29T19:51:44.550Z,7.70
2019-01-29T19:54:13.834Z,8.57
2019-01-29T19:56:42.787Z,8.47
2019-01-29T19:59:15.078Z,8.30
2019-01-29T20:01:44.507Z,8.87
2019-01-29T20:04:13.502Z,7.53
2019-01-29T20:06:53.755Z,8.20
2019-01-29T20:09:22.764Z,8.73
2019-01-29T20:12:05.384Z,8.57
2019-01-29T20:14:44.617Z,8.20
2019-01-29T20:17:13.580Z,8.80
2019-01-29T20:19:42.595Z,8.47
2019-01-29T20:22:11.667Z,8.57
2019-01-29T20:24:40.636Z,8.45
2019-01-29T20:27:16.774Z,10.30
2019-01-29T20:29:45.753Z,8.70
2019-01-29T20:32:18.094Z,10.20
2019-01-29T20:34:47.022Z,9.93
2019-01-29T20:37:15.980Z,10.60
2019-01-29T20:39:44.973Z,10.10
2019-01-29T20:42:13.939Z,9.53
2019-01-29T20:44:42.930Z,9.60
2019-01-29T20:47:17.655Z,9.35
2019-01-29T20:49:46.642Z,9.40
2019-01-29T20:52:15.740Z,8.78
2019-01-29T20:55:12.764Z,9.90
2019-01-29T20:57:42.139Z,9.33
2019-01-29T21:00:13.146Z,9.23
2019-01-29T21:02:42.561Z,9.00
2019-01-29T21:05:11.486Z,9.13
2019-01-29T21:07:40.521Z,8.80
2019-01-29T21:10:10.903Z,9.60
2019-01-29T21:12:51.782Z,8.87
2019-01-29T21:15:21.256Z,8.93
2019-01-29T21:17:50.222Z,9.90
2019-01-29T21:20:22.980Z,9.70
2019-01-29T21:22:51.990Z,9.60
2019-01-29T21:25:20.989Z,10.10
2019-01-29T21:27:50.330Z,10.60
2019-01-29T21:30:20.703Z,9.70
2019-01-29T21:33:30.697Z,10.10
2019-01-29T21:36:00.498Z,9.47
2019-01-29T21:38:29.468Z,9.07
2019-01-29T21:40:58.461Z,9.80
2019-01-29T21:43:27.798Z,9.43
2019-01-29T21:45:56.795Z,10.08
2019-01-29T21:48:25.722Z,9.80
2019-01-29T21:50:54.717Z,10.53
2019-01-29T21:53:23.694Z,9.83
2019-01-29T21:55:52.682Z,9.33
2019-01-29T21:58:53.728Z,9.83
2019-01-29T22:01:22.767Z,9.43
2019-01-29T22:04:29.039Z,9.70
2019-01-29T22:07:05.305Z,8.95
2019-01-29T22:09:43.540Z,10.05
2019-01-29T22:15:35.475Z,8.83
2019-01-29T22:18:19.679Z,9.93
2019-01-29T22:21:11.834Z,10.57
2019-01-29T22:23:46.779Z,10.27
2019-01-29T22:26:16.685Z,9.83
2019-01-29T22:28:45.735Z,10.33
2019-01-29T22:31:14.758Z,10.67
2019-01-29T22:33:43.669Z,9.57
2019-01-29T22:36:16.780Z,10.17
2019-01-29T22:38:45.740Z,9.43
2019-01-29T22:41:14.742Z,9.30
2019-01-29T22:44:38.125Z,8.90
2019-01-29T22:47:07.082Z,9.45
2019-01-29T22:52:58.582Z,10.47
2019-01-29T22:55:27.564Z,10.78
2019-01-29T22:57:56.480Z,9.85
2019-01-29T23:00:33.190Z,11.50
2019-01-29T23:06:30.057Z,10.48
2019-01-29T23:08:58.996Z,9.45
2019-01-29T23:11:28.454Z,9.28
2019-01-29T23:13:57.438Z,8.75
2019-01-29T23:16:26.890Z,9.08
2019-01-29T23:18:55.928Z,10.35
2019-01-29T23:21:24.864Z,10.38
2019-01-29T23:23:53.852Z,10.07
2019-01-29T23:26:22.850Z,9.50
2019-01-29T23:29:17.119Z,10.28
2019-01-29T23:31:46.218Z,8.60
2019-01-29T23:37:25.181Z,9.38
2019-01-29T23:39:54.158Z,9.20
2019-01-29T23:42:23.105Z,8.90
2019-01-29T23:45:16.587Z,9.88
2019-01-29T23:47:45.530Z,9.10
2019-01-29T23:50:16.661Z,8.47
2019-01-29T23:52:45.961Z,9.08
2019-01-29T23:55:15.687Z,8.80
2019-01-29T23:57:44.649Z,9.60
